Terminal Aerodrome Forecast
Issued by NWS Burlington, VT

Home | Current Version | Previous Version | Text Only | Print | Product List | Glossary On
Versions: 1 2 3 4 5 6 7 8 9 10 11 12 13 14 15
000
FTUS41 KBTV 301900 AAA
TAFBTV
TAF AMD
KBTV 301959Z 3020/0118 VRB06KT P6SM SCT035 BKN200
     FM010000 01005KT P6SM OVC025
     FM011500 01004KT P6SM BKN035=

USA.gov is the U.S. government's official web portal to all federal, state and local government web resources and services.